createdAt,value
2023-01-30T00:01:36.517Z,101485.47
2023-01-30T00:04:03.559Z,101477.75
2023-01-30T00:06:32.542Z,101478.78
2023-01-30T00:08:59.580Z,101469.94
2023-01-30T00:11:28.746Z,101466.28
2023-01-30T00:13:57.590Z,101469.00
2023-01-30T00:16:25.230Z,101474.44
2023-01-30T00:18:52.186Z,101468.28
2023-01-30T00:21:19.537Z,101473.59
2023-01-30T00:23:48.016Z,101470.13
2023-01-30T00:26:15.278Z,101468.28
2023-01-30T00:28:42.279Z,101464.63
2023-01-30T00:31:10.668Z,101461.19
2023-01-30T00:33:39.509Z,101458.84
2023-01-30T00:36:07.122Z,101463.25
2023-01-30T00:38:34.167Z,101461.44
2023-01-30T00:41:03.026Z,101463.44
2023-01-30T00:43:48.825Z,101461.66
2023-01-30T00:46:45.687Z,101456.16
2023-01-30T00:49:13.041Z,101464.94
2023-01-30T00:51:40.287Z,101465.81
2023-01-30T00:54:07.419Z,101449.03
2023-01-30T00:56:36.094Z,101444.50
2023-01-30T00:59:03.331Z,101450.63
2023-01-30T01:01:30.560Z,101443.94
2023-01-30T01:03:57.578Z,101437.03
2023-01-30T01:06:24.929Z,101438.00
2023-01-30T01:08:51.861Z,101430.00
2023-01-30T01:11:24.575Z,101432.31
2023-01-30T01:13:55.520Z,101431.94
2023-01-30T01:16:23.972Z,101431.03
2023-01-30T01:18:51.555Z,101430.13
2023-01-30T01:21:20.589Z,101425.59
2023-01-30T01:23:50.162Z,101435.22
2023-01-30T01:26:17.351Z,101422.97
2023-01-30T01:28:44.597Z,101418.72
2023-01-30T01:31:15.209Z,101412.53
2023-01-30T01:33:42.614Z,101413.31
2023-01-30T01:36:10.064Z,101410.78
2023-01-30T01:38:37.677Z,101406.25
2023-01-30T01:41:06.405Z,101405.53
2023-01-30T01:43:34.965Z,101409.16
2023-01-30T01:46:08.212Z,101407.31
2023-01-30T01:48:40.329Z,101407.97
2023-01-30T01:51:13.082Z,101411.31
2023-01-30T01:53:44.026Z,101414.50
2023-01-30T01:56:14.771Z,101409.13
2023-01-30T01:58:46.006Z,101410.06
2023-01-30T02:01:13.369Z,101397.06
2023-01-30T02:03:45.404Z,101396.28
2023-01-30T02:06:16.255Z,101402.47
2023-01-30T02:08:47.785Z,101388.44
2023-01-30T02:11:21.417Z,101375.53
2023-01-30T02:13:50.738Z,101374.88
2023-01-30T02:16:17.896Z,101372.44
2023-01-30T02:18:47.678Z,101369.94
2023-01-30T02:21:44.570Z,101368.41
2023-01-30T02:24:42.855Z,101355.34
2023-01-30T02:27:30.511Z,101362.50
2023-01-30T02:30:20.916Z,101365.22
2023-01-30T02:33:00.115Z,101353.13
2023-01-30T02:35:37.857Z,101354.88
2023-01-30T02:38:19.675Z,101354.09
2023-01-30T02:40:57.767Z,101351.28
2023-01-30T02:43:31.553Z,101343.47
2023-01-30T02:46:05.593Z,101344.34
2023-01-30T02:48:39.990Z,101342.50
2023-01-30T02:51:11.577Z,101348.59
2023-01-30T02:53:39.270Z,101344.25
2023-01-30T02:56:07.015Z,101346.88
2023-01-30T02:58:39.886Z,101345.19
2023-01-30T03:01:35.500Z,101343.44
2023-01-30T03:04:31.208Z,101334.59
2023-01-30T03:07:22.669Z,101327.28
2023-01-30T03:10:01.261Z,101322.56
2023-01-30T03:12:41.262Z,101317.97
2023-01-30T03:15:13.939Z,101310.75
2023-01-30T03:17:44.033Z,101303.81
2023-01-30T03:20:16.905Z,101301.03
2023-01-30T03:22:44.059Z,101307.88
2023-01-30T03:25:16.444Z,101302.75
2023-01-30T03:27:44.960Z,101299.06
2023-01-30T03:30:13.062Z,101299.72
2023-01-30T03:32:40.003Z,101301.56
2023-01-30T03:35:07.689Z,101298.88
2023-01-30T03:37:36.257Z,101297.94
2023-01-30T03:40:04.485Z,101304.19
2023-01-30T03:42:31.794Z,101308.63
2023-01-30T03:44:59.061Z,101292.84
2023-01-30T03:47:26.031Z,101294.59
2023-01-30T03:49:53.186Z,101288.19
2023-01-30T03:52:20.349Z,101280.22
2023-01-30T03:54:48.923Z,101279.69
2023-01-30T03:57:15.953Z,101278.25
2023-01-30T03:59:43.800Z,101277.38
2023-01-30T04:02:11.162Z,101274.97
2023-01-30T04:04:38.402Z,101286.19
2023-01-30T04:07:05.293Z,101282.28
2023-01-30T04:09:32.694Z,101275.19
2023-01-30T04:12:00.927Z,101273.50
2023-01-30T04:14:28.265Z,101276.13
2023-01-30T04:16:56.230Z,101276.84
2023-01-30T04:19:24.446Z,101266.34
2023-01-30T04:21:51.744Z,101271.94
2023-01-30T04:24:18.871Z,101264.50
2023-01-30T04:26:46.037Z,101262.16
2023-01-30T04:29:14.713Z,101262.22
2023-01-30T04:31:41.646Z,101258.22
2023-01-30T04:34:11.119Z,101260.06
2023-01-30T04:36:37.860Z,101255.59
2023-01-30T04:39:05.129Z,101258.88
2023-01-30T04:41:32.076Z,101254.28
2023-01-30T04:43:59.355Z,101255.88
2023-01-30T04:46:27.675Z,101248.06
2023-01-30T04:48:54.942Z,101253.38
2023-01-30T04:51:21.947Z,101252.38
2023-01-30T04:53:49.499Z,101245.50
2023-01-30T04:56:17.852Z,101237.84
2023-01-30T04:58:45.105Z,101257.91
2023-01-30T05:01:13.764Z,101252.59
2023-01-30T05:03:42.902Z,101255.22
2023-01-30T05:06:09.810Z,101242.16
2023-01-30T05:08:37.261Z,101248.41
2023-01-30T05:11:04.503Z,101250.19
2023-01-30T05:13:31.630Z,101241.47
2023-01-30T05:15:58.582Z,101250.97
2023-01-30T05:18:25.851Z,101236.06
2023-01-30T05:20:54.155Z,101237.63
2023-01-30T05:23:21.384Z,101239.69
2023-01-30T05:25:48.291Z,101239.81
2023-01-30T05:28:15.600Z,101236.44
2023-01-30T05:30:42.485Z,101226.22
2023-01-30T05:33:09.689Z,101229.50
2023-01-30T05:35:36.733Z,101236.22
2023-01-30T05:38:05.361Z,101227.44
2023-01-30T05:40:32.308Z,101233.44
2023-01-30T05:42:59.883Z,101234.53
2023-01-30T05:45:26.754Z,101237.91
2023-01-30T05:47:58.478Z,101232.03
2023-01-30T05:50:27.549Z,101232.72
2023-01-30T05:52:54.693Z,101233.44
2023-01-30T05:55:23.202Z,101239.53
2023-01-30T05:57:50.448Z,101234.47
2023-01-30T06:00:18.474Z,101233.53
2023-01-30T06:02:46.029Z,101240.75
2023-01-30T06:05:13.045Z,101239.81
2023-01-30T06:07:40.430Z,101236.16
2023-01-30T06:10:08.104Z,101208.53
2023-01-30T06:12:36.577Z,101234.78
2023-01-30T06:15:03.574Z,101235.72
2023-01-30T06:17:30.883Z,101239.69
2023-01-30T06:19:58.023Z,101243.97
2023-01-30T06:22:25.326Z,101239.41
2023-01-30T06:24:52.205Z,101244.59
2023-01-30T06:27:19.496Z,101244.53
2023-01-30T06:29:47.790Z,101238.53
2023-01-30T06:32:15.114Z,101219.59
2023-01-30T06:34:42.321Z,101244.16
2023-01-30T06:37:09.694Z,101240.78
2023-01-30T06:39:36.629Z,101246.03
2023-01-30T06:42:04.237Z,101249.34
2023-01-30T06:44:31.247Z,101256.63
2023-01-30T06:46:59.900Z,101267.44
2023-01-30T06:49:26.847Z,101263.22
2023-01-30T06:51:53.965Z,101274.84
2023-01-30T06:54:20.889Z,101256.59
2023-01-30T06:56:49.775Z,101265.63
2023-01-30T06:59:16.788Z,101268.28
2023-01-30T07:01:44.025Z,101269.19
2023-01-30T07:04:12.668Z,101284.09
2023-01-30T07:06:40.303Z,101274.44
2023-01-30T07:09:07.177Z,101278.88
2023-01-30T07:11:34.429Z,101276.06
2023-01-30T07:14:01.433Z,101275.38
2023-01-30T07:16:29.536Z,101276.28
2023-01-30T07:18:59.735Z,101274.50
2023-01-30T07:21:28.349Z,101281.16
2023-01-30T07:23:55.745Z,101283.59
2023-01-30T07:26:23.798Z,101274.63
2023-01-30T07:28:50.836Z,101286.59
2023-01-30T07:31:18.104Z,101271.59
2023-01-30T07:33:45.058Z,101279.16
2023-01-30T07:36:12.341Z,101273.78
2023-01-30T07:38:40.933Z,101268.84
2023-01-30T07:41:08.165Z,101275.69
2023-01-30T07:43:35.563Z,101268.81
2023-01-30T07:46:04.016Z,101247.53
2023-01-30T07:48:30.973Z,101252.63
2023-01-30T07:50:58.069Z,101255.44
2023-01-30T07:53:24.976Z,101252.31
2023-01-30T07:55:53.646Z,101246.78
2023-01-30T07:58:20.522Z,101251.59
2023-01-30T08:00:47.861Z,101249.41
2023-01-30T08:03:16.845Z,101251.88
2023-01-30T08:05:46.749Z,101247.28
2023-01-30T08:08:14.417Z,101251.59
2023-01-30T08:10:42.009Z,101248.69
2023-01-30T08:13:10.393Z,101241.44
2023-01-30T08:15:37.724Z,101243.84
2023-01-30T08:18:04.739Z,101230.81
2023-01-30T08:20:32.012Z,101235.97
2023-01-30T08:22:59.714Z,101227.41
2023-01-30T08:25:27.046Z,101227.41
2023-01-30T08:27:54.466Z,101230.03
2023-01-30T08:30:23.272Z,101239.47
2023-01-30T08:32:50.268Z,101231.06
2023-01-30T08:35:18.100Z,101223.22
2023-01-30T08:37:45.223Z,101228.28
2023-01-30T08:40:13.490Z,101227.28
2023-01-30T08:42:40.789Z,101228.00
2023-01-30T08:45:08.814Z,101227.88
2023-01-30T08:47:37.150Z,101225.16
2023-01-30T08:50:05.247Z,101211.25
2023-01-30T08:52:32.575Z,101211.88
2023-01-30T08:54:59.747Z,101215.97
2023-01-30T08:57:26.740Z,101215.91
2023-01-30T08:59:53.994Z,101220.09
2023-01-30T09:02:21.108Z,101208.28
2023-01-30T09:04:50.024Z,101212.19
2023-01-30T09:07:16.960Z,101207.03
2023-01-30T09:09:44.131Z,101202.78
2023-01-30T09:12:11.164Z,101200.06
2023-01-30T09:14:38.398Z,101193.06
2023-01-30T09:17:05.273Z,101193.75
2023-01-30T09:19:32.828Z,101190.06
2023-01-30T09:22:01.201Z,101186.19
2023-01-30T09:24:28.740Z,101167.19
2023-01-30T09:26:59.984Z,101169.72
2023-01-30T09:29:27.650Z,101175.72
2023-01-30T09:31:56.563Z,101176.88
2023-01-30T09:34:27.669Z,101169.59
2023-01-30T09:36:54.736Z,101162.13
2023-01-30T09:39:23.474Z,101160.63
2023-01-30T09:42:07.717Z,101166.38
2023-01-30T09:45:01.737Z,101158.13
2023-01-30T09:47:39.451Z,101165.44
2023-01-30T09:50:23.830Z,101157.47
2023-01-30T09:52:57.963Z,101163.25
2023-01-30T09:55:29.355Z,101151.59
2023-01-30T09:57:58.615Z,101151.97
2023-01-30T10:00:32.381Z,101153.06
2023-01-30T10:03:06.664Z,101154.16
2023-01-30T10:05:40.735Z,101148.47
2023-01-30T10:08:24.153Z,101144.59
2023-01-30T10:11:10.183Z,101134.66
2023-01-30T10:14:04.726Z,101127.94
2023-01-30T10:16:37.522Z,101111.50
2023-01-30T10:19:34.885Z,101104.06
2023-01-30T10:22:10.917Z,101111.06
2023-01-30T10:24:50.900Z,101103.03
2023-01-30T10:27:21.331Z,101101.31
2023-01-30T10:29:53.153Z,101087.06
2023-01-30T10:32:28.987Z,101068.94
2023-01-30T10:35:00.350Z,101057.72
2023-01-30T10:37:32.423Z,101038.66
2023-01-30T10:40:12.923Z,101021.53
2023-01-30T10:42:48.036Z,101019.56
2023-01-30T10:45:19.786Z,101004.59
2023-01-30T10:47:59.683Z,100994.78
2023-01-30T10:50:34.565Z,100992.84
2023-01-30T10:53:10.012Z,101003.56
2023-01-30T10:55:45.375Z,101006.38
2023-01-30T10:58:26.413Z,101000.66
2023-01-30T11:01:00.245Z,101001.31
2023-01-30T11:03:36.631Z,101005.94
2023-01-30T11:06:07.538Z,100992.47
2023-01-30T11:08:36.101Z,100980.50
2023-01-30T11:11:24.575Z,100970.03
2023-01-30T11:14:01.413Z,100984.22
2023-01-30T11:16:28.401Z,100968.13
2023-01-30T11:21:51.585Z,100951.31
2023-01-30T11:24:20.712Z,100938.75
2023-01-30T11:26:48.769Z,100955.84
2023-01-30T11:29:28.767Z,100950.31
2023-01-30T11:31:56.785Z,100952.50
2023-01-30T11:34:25.487Z,100935.19
2023-01-30T11:36:52.735Z,100929.66
2023-01-30T11:39:23.473Z,100938.59
2023-01-30T11:41:58.991Z,100930.31
2023-01-30T11:44:29.489Z,100923.50
2023-01-30T11:46:59.374Z,100924.31
2023-01-30T11:49:46.543Z,100910.00
2023-01-30T11:52:18.001Z,100915.84
2023-01-30T11:54:46.365Z,100917.56
2023-01-30T11:57:15.158Z,100914.06
2023-01-30T11:59:44.945Z,100905.81
2023-01-30T12:02:18.248Z,100882.44
2023-01-30T12:04:47.185Z,100885.13
2023-01-30T12:07:20.392Z,100886.38
2023-01-30T12:09:50.360Z,100886.88
2023-01-30T12:12:32.859Z,100872.41
2023-01-30T12:15:20.177Z,100865.91
2023-01-30T12:17:52.641Z,100864.84
2023-01-30T12:20:28.539Z,100860.41
2023-01-30T12:23:08.475Z,100850.41
2023-01-30T12:25:41.587Z,100844.25
2023-01-30T12:28:15.269Z,100821.63
2023-01-30T12:30:49.381Z,100823.41
2023-01-30T12:35:57.079Z,100820.66
2023-01-30T12:38:55.714Z,100818.66
2023-01-30T12:41:34.849Z,100828.94
2023-01-30T12:44:38.430Z,100823.97
2023-01-30T12:47:24.992Z,100821.25
2023-01-30T12:50:25.538Z,100812.66
2023-01-30T12:53:16.814Z,100812.38
2023-01-30T12:55:52.967Z,100808.31
2023-01-30T12:58:25.092Z,100808.31
2023-01-30T13:01:04.562Z,100785.19
2023-01-30T13:03:41.931Z,100785.69
2023-01-30T13:06:24.204Z,100789.03
2023-01-30T13:09:02.686Z,100789.09
2023-01-30T13:11:48.312Z,100787.41
2023-01-30T13:14:27.305Z,100773.97
2023-01-30T13:17:14.371Z,100768.22
2023-01-30T13:19:49.517Z,100752.44
2023-01-30T13:22:23.599Z,100723.97
2023-01-30T13:25:00.809Z,100734.66
2023-01-30T13:27:29.445Z,100724.06
2023-01-30T13:29:59.573Z,100744.28
2023-01-30T13:32:35.729Z,100742.97
2023-01-30T13:35:09.769Z,100739.81
2023-01-30T13:37:38.150Z,100745.28
2023-01-30T13:40:16.978Z,100733.69
2023-01-30T13:42:51.161Z,100738.72
2023-01-30T13:45:22.134Z,100731.66
2023-01-30T13:48:03.602Z,100731.94
2023-01-30T13:50:50.548Z,100730.97
2023-01-30T13:53:24.808Z,100738.56
2023-01-30T13:55:57.440Z,100741.59
2023-01-30T13:58:44.144Z,100730.91
2023-01-30T14:01:13.180Z,100728.66
2023-01-30T14:03:40.372Z,100727.25
2023-01-30T14:06:32.445Z,100725.03
2023-01-30T14:09:03.312Z,100730.84
2023-01-30T14:11:37.938Z,100723.44
2023-01-30T14:14:25.162Z,100725.59
2023-01-30T14:16:54.792Z,100724.34
2023-01-30T14:19:33.706Z,100729.31
2023-01-30T14:22:05.475Z,100732.91
2023-01-30T14:24:32.440Z,100737.88
2023-01-30T14:27:04.888Z,100733.09
2023-01-30T14:29:51.398Z,100731.41
2023-01-30T14:32:51.455Z,100724.72
2023-01-30T14:35:26.239Z,100728.94
2023-01-30T14:38:13.517Z,100731.03
2023-01-30T14:41:17.071Z,100727.28
2023-01-30T14:43:52.830Z,100727.53
2023-01-30T14:46:41.383Z,100721.91
2023-01-30T14:49:27.158Z,100712.63
2023-01-30T14:51:56.245Z,100708.69
2023-01-30T14:54:42.121Z,100699.66
2023-01-30T14:57:22.871Z,100699.28
2023-01-30T15:00:13.390Z,100696.88
2023-01-30T15:02:44.312Z,100696.75
2023-01-30T15:05:15.324Z,100690.00
2023-01-30T15:07:45.702Z,100688.56
2023-01-30T15:10:23.721Z,100684.63
2023-01-30T15:13:18.879Z,100685.47
2023-01-30T15:15:57.590Z,100685.47
2023-01-30T15:18:37.609Z,100692.66
2023-01-30T15:21:23.755Z,100694.72
2023-01-30T15:24:12.544Z,100695.97
2023-01-30T15:26:51.407Z,100698.75
2023-01-30T15:29:56.783Z,100700.72
2023-01-30T15:32:25.654Z,100689.09
2023-01-30T15:34:54.302Z,100687.38
2023-01-30T15:37:33.237Z,100683.38
2023-01-30T15:40:21.984Z,100685.25
2023-01-30T15:42:55.897Z,100682.69
2023-01-30T15:45:33.043Z,100681.28
2023-01-30T15:48:17.802Z,100696.47
2023-01-30T15:50:49.114Z,100688.00
2023-01-30T15:53:17.265Z,100692.44
2023-01-30T15:55:46.390Z,100691.09
2023-01-30T15:58:17.948Z,100700.81
2023-01-30T16:00:48.182Z,100701.00
2023-01-30T16:03:20.465Z,100708.03
2023-01-30T16:05:48.565Z,100703.25
2023-01-30T16:08:22.504Z,100704.06
2023-01-30T16:10:52.694Z,100708.97
2023-01-30T16:13:23.822Z,100721.00
2023-01-30T16:15:55.376Z,100719.19
2023-01-30T16:18:29.205Z,100710.38
2023-01-30T16:21:02.508Z,100712.78
2023-01-30T16:23:35.302Z,100710.03
2023-01-30T16:26:04.248Z,100709.38
2023-01-30T16:28:33.249Z,100699.22
2023-01-30T16:31:02.695Z,100692.00
2023-01-30T16:33:35.916Z,100684.75
2023-01-30T16:36:04.360Z,100678.44
2023-01-30T16:38:37.265Z,100664.59
2023-01-30T16:41:05.375Z,100687.38
2023-01-30T16:43:34.488Z,100684.50
2023-01-30T16:46:45.190Z,100687.38
2023-01-30T16:49:18.346Z,100689.03
2023-01-30T16:51:46.266Z,100681.16
2023-01-30T16:54:21.329Z,100677.00
2023-01-30T16:56:52.425Z,100671.19
2023-01-30T16:59:28.684Z,100667.28
2023-01-30T17:01:57.135Z,100644.59
2023-01-30T17:04:27.859Z,100656.56
2023-01-30T17:06:57.049Z,100642.94
2023-01-30T17:09:41.679Z,100619.69
2023-01-30T17:12:42.891Z,100631.03
2023-01-30T17:15:31.019Z,100629.28
2023-01-30T17:17:58.512Z,100626.19
2023-01-30T17:20:33.410Z,100624.19
2023-01-30T17:23:05.772Z,100632.34
2023-01-30T17:25:38.158Z,100617.88
2023-01-30T17:28:06.788Z,100628.34
2023-01-30T17:30:35.694Z,100631.56
2023-01-30T17:33:03.166Z,100631.16
2023-01-30T17:35:30.409Z,100639.84
2023-01-30T17:38:05.108Z,100632.84
2023-01-30T17:40:34.750Z,100624.59
2023-01-30T17:43:01.793Z,100620.66
2023-01-30T17:45:29.907Z,100618.09
2023-01-30T17:47:58.182Z,100618.03
2023-01-30T17:50:25.661Z,100610.16
2023-01-30T17:52:52.564Z,100610.22
2023-01-30T17:55:21.273Z,100623.78
2023-01-30T17:57:49.151Z,100614.22
2023-01-30T18:00:19.477Z,100619.38
2023-01-30T18:02:47.063Z,100628.19
2023-01-30T18:05:15.957Z,100627.91
2023-01-30T18:07:42.996Z,100614.53
2023-01-30T18:10:14.480Z,100619.47
2023-01-30T18:12:41.584Z,100627.25
2023-01-30T18:15:12.128Z,100623.50
2023-01-30T18:17:44.305Z,100626.91
2023-01-30T18:20:16.525Z,100636.22
2023-01-30T18:22:43.822Z,100629.34
2023-01-30T18:25:13.452Z,100639.97
2023-01-30T18:27:41.260Z,100632.56
2023-01-30T18:30:09.702Z,100639.22
2023-01-30T18:32:40.624Z,100641.44
2023-01-30T18:35:15.619Z,100646.16
2023-01-30T18:37:43.994Z,100647.94
2023-01-30T18:40:15.084Z,100650.69
2023-01-30T18:42:42.699Z,100645.91
2023-01-30T18:45:10.261Z,100663.06
2023-01-30T18:47:37.239Z,100650.69
2023-01-30T18:50:05.740Z,100655.69
2023-01-30T18:52:34.011Z,100657.53
2023-01-30T18:55:01.275Z,100642.81
2023-01-30T18:57:28.175Z,100615.41
2023-01-30T18:59:55.354Z,100617.41
2023-01-30T19:02:22.259Z,100619.69
2023-01-30T19:04:49.481Z,100625.09
2023-01-30T19:07:16.435Z,100602.63
2023-01-30T19:09:45.080Z,100611.31
2023-01-30T19:12:30.633Z,100602.44
2023-01-30T19:14:57.811Z,100587.38
2023-01-30T19:17:24.842Z,100593.41
2023-01-30T19:19:51.968Z,100604.28
2023-01-30T19:22:18.978Z,100622.44
2023-01-30T19:24:47.438Z,100649.22
2023-01-30T19:27:16.003Z,100640.69
2023-01-30T19:29:43.440Z,100622.31
2023-01-30T19:32:10.437Z,100627.91
2023-01-30T19:34:38.524Z,100618.78
2023-01-30T19:37:05.905Z,100624.13
2023-01-30T19:39:33.012Z,100615.81
2023-01-30T19:42:01.566Z,100611.44
2023-01-30T19:44:28.954Z,100584.13
2023-01-30T19:46:56.039Z,100611.91
2023-01-30T19:49:23.249Z,100623.16
2023-01-30T19:51:50.091Z,100622.63
2023-01-30T19:54:18.743Z,100627.63
2023-01-30T19:56:48.323Z,100642.59
2023-01-30T19:59:17.160Z,100649.53
2023-01-30T20:01:44.180Z,100653.78
2023-01-30T20:04:11.596Z,100642.78
2023-01-30T20:06:42.844Z,100644.88
2023-01-30T20:09:11.386Z,100636.59
2023-01-30T20:11:39.724Z,100637.16
2023-01-30T20:14:07.578Z,100642.34
2023-01-30T20:16:36.606Z,100641.75
2023-01-30T20:19:06.178Z,100644.47
2023-01-30T20:21:33.650Z,100642.50
2023-01-30T20:24:01.779Z,100646.06
2023-01-30T20:26:30.684Z,100645.22
2023-01-30T20:28:57.750Z,100647.19
2023-01-30T20:31:27.692Z,100647.84
2023-01-30T20:33:57.826Z,100639.63
2023-01-30T20:36:26.877Z,100625.84
2023-01-30T20:38:55.604Z,100630.94
2023-01-30T20:41:24.321Z,100624.47
2023-01-30T20:43:53.993Z,100629.25
2023-01-30T20:46:25.500Z,100623.63
2023-01-30T20:48:56.394Z,100605.91
2023-01-30T20:51:24.965Z,100607.25
2023-01-30T20:53:53.821Z,100597.16
2023-01-30T20:56:22.121Z,100602.03
2023-01-30T20:58:49.408Z,100599.03
2023-01-30T21:01:18.840Z,100589.25
2023-01-30T21:03:50.707Z,100595.69
2023-01-30T21:06:41.363Z,100601.69
2023-01-30T21:09:11.130Z,100603.47
2023-01-30T21:11:38.520Z,100587.00
2023-01-30T21:14:05.862Z,100613.94
2023-01-30T21:16:35.062Z,100610.78
2023-01-30T21:19:06.000Z,100598.09
2023-01-30T21:21:37.092Z,100581.09
2023-01-30T21:24:07.784Z,100584.06
2023-01-30T21:26:37.040Z,100586.75
2023-01-30T21:29:06.775Z,100588.47
2023-01-30T21:31:35.883Z,100576.88
2023-01-30T21:34:03.750Z,100577.72
2023-01-30T21:36:30.785Z,100565.22
2023-01-30T21:39:17.925Z,100568.66
2023-01-30T21:41:45.779Z,100576.94
2023-01-30T21:44:13.655Z,100578.06
2023-01-30T21:46:42.221Z,100592.78
2023-01-30T21:49:09.933Z,100605.09
2023-01-30T21:51:37.814Z,100608.84
2023-01-30T21:54:06.395Z,100611.28
2023-01-30T21:56:33.402Z,100603.53
2023-01-30T21:59:04.194Z,100606.66
2023-01-30T22:01:31.943Z,100601.25
2023-01-30T22:04:00.421Z,100601.41
2023-01-30T22:06:27.513Z,100597.84
2023-01-30T22:08:55.496Z,100585.94
2023-01-30T22:11:23.977Z,100591.94
2023-01-30T22:13:51.895Z,100576.47
2023-01-30T22:16:21.171Z,100579.97
2023-01-30T22:18:53.150Z,100586.63
2023-01-30T22:21:21.558Z,100581.44
2023-01-30T22:23:51.022Z,100579.63
2023-01-30T22:26:18.880Z,100560.13
2023-01-30T22:28:47.639Z,100556.94
2023-01-30T22:31:16.556Z,100564.03
2023-01-30T22:33:45.698Z,100561.69
2023-01-30T22:36:13.666Z,100561.50
2023-01-30T22:38:43.277Z,100564.78
2023-01-30T22:41:14.627Z,100561.75
2023-01-30T22:43:45.392Z,100555.91
2023-01-30T22:46:15.625Z,100565.78
2023-01-30T22:48:43.556Z,100561.41
2023-01-30T22:51:14.173Z,100562.00
2023-01-30T22:53:42.951Z,100561.06
2023-01-30T22:56:12.011Z,100561.44
2023-01-30T22:58:39.476Z,100571.00
2023-01-30T23:01:08.059Z,100566.03
2023-01-30T23:03:36.984Z,100567.31
2023-01-30T23:06:06.199Z,100557.78
2023-01-30T23:08:36.090Z,100562.78
2023-01-30T23:11:07.181Z,100566.00
2023-01-30T23:13:34.718Z,100563.28
2023-01-30T23:16:02.286Z,100555.06
2023-01-30T23:18:47.859Z,100547.19
2023-01-30T23:21:16.824Z,100556.47
2023-01-30T23:23:43.890Z,100553.78
2023-01-30T23:26:11.644Z,100555.63
2023-01-30T23:28:39.081Z,100541.41
2023-01-30T23:31:08.248Z,100544.91
2023-01-30T23:33:36.455Z,100515.41
2023-01-30T23:36:04.515Z,100541.16
2023-01-30T23:38:33.262Z,100538.06
2023-01-30T23:41:11.598Z,100542.56
2023-01-30T23:43:40.440Z,100547.06
2023-01-30T23:46:12.551Z,100539.22
2023-01-30T23:48:39.896Z,100544.38
2023-01-30T23:51:06.921Z,100544.44
2023-01-30T23:53:36.299Z,100529.03
2023-01-30T23:56:03.802Z,100533.16
2023-01-30T23:58:30.939Z,100533.28
